sensor_id;sensor_type;location;lat;lon;timestamp;P1;durP1;ratioP1;P2;durP2;ratioP2
16878;SDS011;8556;52.218;9.884;2024-03-22T00:02:07;24.43;;;14.20;;
16878;SDS011;8556;52.218;9.884;2024-03-22T00:04:34;26.33;;;15.77;;
16878;SDS011;8556;52.218;9.884;2024-03-22T00:07:01;23.93;;;14.10;;
16878;SDS011;8556;52.218;9.884;2024-03-22T00:09:28;24.90;;;15.13;;
16878;SDS011;8556;52.218;9.884;2024-03-22T00:11:55;24.80;;;14.60;;
16878;SDS011;8556;52.218;9.884;2024-03-22T00:14:21;27.07;;;16.37;;
16878;SDS011;8556;52.218;9.884;2024-03-22T00:16:49;26.17;;;15.93;;
16878;SDS011;8556;52.218;9.884;2024-03-22T00:19:15;28.27;;;16.37;;
16878;SDS011;8556;52.218;9.884;2024-03-22T00:21:42;26.70;;;16.27;;
16878;SDS011;8556;52.218;9.884;2024-03-22T00:24:08;29.63;;;16.77;;
16878;SDS011;8556;52.218;9.884;2024-03-22T00:26:35;26.50;;;16.67;;
16878;SDS011;8556;52.218;9.884;2024-03-22T00:29:01;29.47;;;17.40;;
16878;SDS011;8556;52.218;9.884;2024-03-22T00:31:28;33.07;;;18.13;;
16878;SDS011;8556;52.218;9.884;2024-03-22T00:33:55;29.70;;;18.60;;
16878;SDS011;8556;52.218;9.884;2024-03-22T00:36:22;33.13;;;19.17;;
16878;SDS011;8556;52.218;9.884;2024-03-22T00:38:48;30.60;;;17.97;;
16878;SDS011;8556;52.218;9.884;2024-03-22T00:41:15;31.30;;;18.73;;
16878;SDS011;8556;52.218;9.884;2024-03-22T00:43:41;31.43;;;19.13;;
16878;SDS011;8556;52.218;9.884;2024-03-22T00:46:08;32.73;;;19.37;;
16878;SDS011;8556;52.218;9.884;2024-03-22T00:48:34;33.40;;;20.40;;
16878;SDS011;8556;52.218;9.884;2024-03-22T00:51:03;37.27;;;22.17;;
16878;SDS011;8556;52.218;9.884;2024-03-22T00:53:29;35.43;;;20.73;;
16878;SDS011;8556;52.218;9.884;2024-03-22T00:55:56;35.30;;;21.73;;
16878;SDS011;8556;52.218;9.884;2024-03-22T00:58:24;39.67;;;22.50;;
16878;SDS011;8556;52.218;9.884;2024-03-22T01:00:52;37.53;;;22.03;;
16878;SDS011;8556;52.218;9.884;2024-03-22T01:03:18;39.13;;;23.27;;
16878;SDS011;8556;52.218;9.884;2024-03-22T01:05:45;39.23;;;24.17;;
16878;SDS011;8556;52.218;9.884;2024-03-22T01:08:13;40.47;;;23.60;;
16878;SDS011;8556;52.218;9.884;2024-03-22T01:10:40;41.80;;;24.07;;
16878;SDS011;8556;52.218;9.884;2024-03-22T01:13:06;41.53;;;24.50;;
16878;SDS011;8556;52.218;9.884;2024-03-22T01:15:33;43.63;;;24.60;;
16878;SDS011;8556;52.218;9.884;2024-03-22T01:17:59;41.90;;;24.10;;
16878;SDS011;8556;52.218;9.884;2024-03-22T01:20:26;41.63;;;24.17;;
16878;SDS011;8556;52.218;9.884;2024-03-22T01:22:52;40.33;;;23.20;;
16878;SDS011;8556;52.218;9.884;2024-03-22T01:25:20;42.30;;;25.67;;
16878;SDS011;8556;52.218;9.884;2024-03-22T01:27:46;40.97;;;23.87;;
16878;SDS011;8556;52.218;9.884;2024-03-22T01:30:13;43.30;;;25.70;;
16878;SDS011;8556;52.218;9.884;2024-03-22T01:32:39;44.93;;;26.73;;
16878;SDS011;8556;52.218;9.884;2024-03-22T01:35:06;43.97;;;25.10;;
16878;SDS011;8556;52.218;9.884;2024-03-22T01:37:33;41.93;;;25.63;;
16878;SDS011;8556;52.218;9.884;2024-03-22T01:40:00;41.40;;;24.90;;
16878;SDS011;8556;52.218;9.884;2024-03-22T01:42:27;42.70;;;25.20;;
16878;SDS011;8556;52.218;9.884;2024-03-22T01:44:54;39.03;;;23.63;;
16878;SDS011;8556;52.218;9.884;2024-03-22T01:47:20;43.10;;;25.10;;
16878;SDS011;8556;52.218;9.884;2024-03-22T01:49:47;43.03;;;24.83;;
16878;SDS011;8556;52.218;9.884;2024-03-22T01:52:16;37.60;;;23.73;;
16878;SDS011;8556;52.218;9.884;2024-03-22T01:54:43;47.67;;;26.70;;
16878;SDS011;8556;52.218;9.884;2024-03-22T01:57:08;42.33;;;25.90;;
16878;SDS011;8556;52.218;9.884;2024-03-22T01:59:37;40.00;;;24.93;;
16878;SDS011;8556;52.218;9.884;2024-03-22T02:02:04;39.17;;;24.10;;
16878;SDS011;8556;52.218;9.884;2024-03-22T02:04:31;45.90;;;26.03;;
16878;SDS011;8556;52.218;9.884;2024-03-22T02:06:57;40.10;;;25.20;;
16878;SDS011;8556;52.218;9.884;2024-03-22T02:09:24;41.40;;;24.37;;
16878;SDS011;8556;52.218;9.884;2024-03-22T02:11:50;42.17;;;25.60;;
16878;SDS011;8556;52.218;9.884;2024-03-22T02:14:17;44.03;;;26.57;;
16878;SDS011;8556;52.218;9.884;2024-03-22T02:16:46;45.97;;;26.20;;
16878;SDS011;8556;52.218;9.884;2024-03-22T02:19:12;42.87;;;25.87;;
16878;SDS011;8556;52.218;9.884;2024-03-22T02:21:38;42.70;;;25.07;;
16878;SDS011;8556;52.218;9.884;2024-03-22T02:24:06;41.10;;;25.77;;
16878;SDS011;8556;52.218;9.884;2024-03-22T02:26:33;43.67;;;26.07;;
16878;SDS011;8556;52.218;9.884;2024-03-22T02:28:59;43.03;;;25.23;;
16878;SDS011;8556;52.218;9.884;2024-03-22T02:31:26;44.87;;;26.83;;
16878;SDS011;8556;52.218;9.884;2024-03-22T02:33:52;43.40;;;25.27;;
16878;SDS011;8556;52.218;9.884;2024-03-22T02:36:19;42.73;;;26.20;;
16878;SDS011;8556;52.218;9.884;2024-03-22T02:38:45;40.77;;;25.80;;
16878;SDS011;8556;52.218;9.884;2024-03-22T02:41:13;43.57;;;26.63;;
16878;SDS011;8556;52.218;9.884;2024-03-22T02:43:39;44.17;;;26.23;;
16878;SDS011;8556;52.218;9.884;2024-03-22T02:46:05;45.47;;;25.50;;
16878;SDS011;8556;52.218;9.884;2024-03-22T02:48:31;46.97;;;28.33;;
16878;SDS011;8556;52.218;9.884;2024-03-22T02:50:58;46.23;;;27.80;;
16878;SDS011;8556;52.218;9.884;2024-03-22T02:53:24;44.50;;;27.73;;
16878;SDS011;8556;52.218;9.884;2024-03-22T02:55:51;45.33;;;27.57;;
16878;SDS011;8556;52.218;9.884;2024-03-22T02:58:20;41.33;;;26.67;;
16878;SDS011;8556;52.218;9.884;2024-03-22T03:00:47;43.73;;;25.70;;
16878;SDS011;8556;52.218;9.884;2024-03-22T03:03:13;46.13;;;27.77;;
16878;SDS011;8556;52.218;9.884;2024-03-22T03:05:41;42.53;;;25.93;;
16878;SDS011;8556;52.218;9.884;2024-03-22T03:08:07;40.70;;;24.70;;
16878;SDS011;8556;52.218;9.884;2024-03-22T03:10:34;45.17;;;27.50;;
16878;SDS011;8556;52.218;9.884;2024-03-22T03:13:00;40.50;;;25.37;;
16878;SDS011;8556;52.218;9.884;2024-03-22T03:15:29;41.83;;;26.13;;
16878;SDS011;8556;52.218;9.884;2024-03-22T03:17:55;43.20;;;27.00;;
16878;SDS011;8556;52.218;9.884;2024-03-22T03:20:21;44.60;;;27.40;;
16878;SDS011;8556;52.218;9.884;2024-03-22T03:22:47;42.67;;;25.47;;
16878;SDS011;8556;52.218;9.884;2024-03-22T03:25:14;39.77;;;24.53;;
16878;SDS011;8556;52.218;9.884;2024-03-22T03:27:41;44.73;;;26.90;;
16878;SDS011;8556;52.218;9.884;2024-03-22T03:30:08;41.23;;;24.60;;
16878;SDS011;8556;52.218;9.884;2024-03-22T03:32:35;41.27;;;24.20;;
16878;SDS011;8556;52.218;9.884;2024-03-22T03:35:02;43.47;;;25.83;;
16878;SDS011;8556;52.218;9.884;2024-03-22T03:37:30;40.90;;;23.97;;
16878;SDS011;8556;52.218;9.884;2024-03-22T03:39:57;39.80;;;23.83;;
16878;SDS011;8556;52.218;9.884;2024-03-22T03:42:23;40.03;;;23.87;;
16878;SDS011;8556;52.218;9.884;2024-03-22T03:44:50;37.90;;;23.93;;
16878;SDS011;8556;52.218;9.884;2024-03-22T03:47:16;40.67;;;23.33;;
16878;SDS011;8556;52.218;9.884;2024-03-22T03:49:46;35.83;;;22.13;;
16878;SDS011;8556;52.218;9.884;2024-03-22T03:52:12;37.33;;;22.23;;
16878;SDS011;8556;52.218;9.884;2024-03-22T03:54:39;38.13;;;22.37;;
16878;SDS011;8556;52.218;9.884;2024-03-22T03:57:05;38.73;;;22.47;;
16878;SDS011;8556;52.218;9.884;2024-03-22T03:59:32;34.07;;;19.90;;
16878;SDS011;8556;52.218;9.884;2024-03-22T04:01:58;38.17;;;21.67;;
16878;SDS011;8556;52.218;9.884;2024-03-22T04:04:25;40.43;;;22.27;;
16878;SDS011;8556;52.218;9.884;2024-03-22T04:06:52;35.17;;;20.50;;
16878;SDS011;8556;52.218;9.884;2024-03-22T04:09:19;36.10;;;20.23;;
16878;SDS011;8556;52.218;9.884;2024-03-22T04:11:45;35.20;;;21.17;;
16878;SDS011;8556;52.218;9.884;2024-03-22T04:14:12;37.63;;;22.57;;
16878;SDS011;8556;52.218;9.884;2024-03-22T04:16:38;34.83;;;20.97;;
16878;SDS011;8556;52.218;9.884;2024-03-22T04:19:05;37.20;;;21.00;;
16878;SDS011;8556;52.218;9.884;2024-03-22T04:21:32;37.53;;;21.03;;
16878;SDS011;8556;52.218;9.884;2024-03-22T04:24:00;37.17;;;20.73;;
16878;SDS011;8556;52.218;9.884;2024-03-22T04:26:26;35.07;;;20.07;;
16878;SDS011;8556;52.218;9.884;2024-03-22T04:28:53;33.53;;;19.70;;
16878;SDS011;8556;52.218;9.884;2024-03-22T04:31:19;35.37;;;19.23;;
16878;SDS011;8556;52.218;9.884;2024-03-22T04:33:46;36.93;;;20.67;;
16878;SDS011;8556;52.218;9.884;2024-03-22T04:36:12;33.07;;;20.23;;
16878;SDS011;8556;52.218;9.884;2024-03-22T04:38:39;35.13;;;19.17;;
16878;SDS011;8556;52.218;9.884;2024-03-22T04:41:07;36.80;;;20.83;;
16878;SDS011;8556;52.218;9.884;2024-03-22T04:43:34;34.90;;;20.13;;
16878;SDS011;8556;52.218;9.884;2024-03-22T04:46:01;34.70;;;20.33;;
16878;SDS011;8556;52.218;9.884;2024-03-22T04:48:27;33.60;;;19.83;;
16878;SDS011;8556;52.218;9.884;2024-03-22T04:50:54;33.90;;;19.77;;
16878;SDS011;8556;52.218;9.884;2024-03-22T04:53:20;33.30;;;20.13;;
16878;SDS011;8556;52.218;9.884;2024-03-22T04:55:47;32.43;;;19.67;;
16878;SDS011;8556;52.218;9.884;2024-03-22T04:58:15;38.63;;;19.93;;
16878;SDS011;8556;52.218;9.884;2024-03-22T05:00:43;34.40;;;19.13;;
16878;SDS011;8556;52.218;9.884;2024-03-22T05:03:10;33.87;;;20.10;;
16878;SDS011;8556;52.218;9.884;2024-03-22T05:05:37;34.97;;;20.07;;
16878;SDS011;8556;52.218;9.884;2024-03-22T05:08:04;32.33;;;19.00;;
16878;SDS011;8556;52.218;9.884;2024-03-22T05:10:32;36.70;;;21.43;;
16878;SDS011;8556;52.218;9.884;2024-03-22T05:12:58;33.83;;;19.23;;
16878;SDS011;8556;52.218;9.884;2024-03-22T05:15:27;34.87;;;19.73;;
16878;SDS011;8556;52.218;9.884;2024-03-22T05:17:53;34.20;;;19.07;;
16878;SDS011;8556;52.218;9.884;2024-03-22T05:20:22;33.77;;;17.83;;
16878;SDS011;8556;52.218;9.884;2024-03-22T05:22:48;34.53;;;18.67;;
16878;SDS011;8556;52.218;9.884;2024-03-22T05:25:15;32.90;;;19.23;;
16878;SDS011;8556;52.218;9.884;2024-03-22T05:27:41;34.87;;;20.07;;
16878;SDS011;8556;52.218;9.884;2024-03-22T05:30:09;35.17;;;19.93;;
16878;SDS011;8556;52.218;9.884;2024-03-22T05:32:37;34.37;;;18.87;;
16878;SDS011;8556;52.218;9.884;2024-03-22T05:35:04;35.47;;;20.20;;
16878;SDS011;8556;52.218;9.884;2024-03-22T05:37:30;33.80;;;19.03;;
16878;SDS011;8556;52.218;9.884;2024-03-22T05:39:58;36.30;;;19.60;;
16878;SDS011;8556;52.218;9.884;2024-03-22T05:42:24;33.57;;;19.33;;
16878;SDS011;8556;52.218;9.884;2024-03-22T05:44:51;38.10;;;21.03;;
16878;SDS011;8556;52.218;9.884;2024-03-22T05:47:17;36.30;;;19.97;;
16878;SDS011;8556;52.218;9.884;2024-03-22T05:49:47;34.67;;;18.47;;
16878;SDS011;8556;52.218;9.884;2024-03-22T05:52:13;33.77;;;18.53;;
16878;SDS011;8556;52.218;9.884;2024-03-22T05:54:40;34.30;;;18.93;;
16878;SDS011;8556;52.218;9.884;2024-03-22T05:57:06;34.23;;;18.47;;
16878;SDS011;8556;52.218;9.884;2024-03-22T05:59:34;35.40;;;19.93;;
16878;SDS011;8556;52.218;9.884;2024-03-22T06:02:00;35.67;;;19.70;;
16878;SDS011;8556;52.218;9.884;2024-03-22T06:04:27;36.07;;;20.60;;
16878;SDS011;8556;52.218;9.884;2024-03-22T06:06:54;33.37;;;19.23;;
16878;SDS011;8556;52.218;9.884;2024-03-22T06:09:24;34.33;;;19.53;;
16878;SDS011;8556;52.218;9.884;2024-03-22T06:11:59;35.07;;;19.67;;
16878;SDS011;8556;52.218;9.884;2024-03-22T06:14:27;33.60;;;18.60;;
16878;SDS011;8556;52.218;9.884;2024-03-22T06:16:53;34.83;;;20.90;;
16878;SDS011;8556;52.218;9.884;2024-03-22T06:19:20;37.13;;;19.87;;
16878;SDS011;8556;52.218;9.884;2024-03-22T06:21:46;34.70;;;20.00;;
16878;SDS011;8556;52.218;9.884;2024-03-22T06:24:14;35.43;;;20.13;;
16878;SDS011;8556;52.218;9.884;2024-03-22T06:26:40;35.20;;;19.83;;
16878;SDS011;8556;52.218;9.884;2024-03-22T06:29:07;33.70;;;20.10;;
16878;SDS011;8556;52.218;9.884;2024-03-22T06:31:33;33.80;;;18.83;;
16878;SDS011;8556;52.218;9.884;2024-03-22T06:34:00;32.27;;;18.47;;
16878;SDS011;8556;52.218;9.884;2024-03-22T06:36:27;34.90;;;19.03;;
16878;SDS011;8556;52.218;9.884;2024-03-22T06:38:54;32.90;;;18.77;;
16878;SDS011;8556;52.218;9.884;2024-03-22T06:41:22;33.40;;;18.33;;
16878;SDS011;8556;52.218;9.884;2024-03-22T06:43:49;31.80;;;17.57;;
16878;SDS011;8556;52.218;9.884;2024-03-22T06:46:15;33.10;;;18.93;;
16878;SDS011;8556;52.218;9.884;2024-03-22T06:48:42;32.10;;;18.43;;
16878;SDS011;8556;52.218;9.884;2024-03-22T06:51:08;34.00;;;19.33;;
16878;SDS011;8556;52.218;9.884;2024-03-22T06:53:35;33.13;;;18.63;;
16878;SDS011;8556;52.218;9.884;2024-03-22T06:56:00;31.13;;;17.13;;
16878;SDS011;8556;52.218;9.884;2024-03-22T06:58:29;31.73;;;18.93;;
16878;SDS011;8556;52.218;9.884;2024-03-22T07:00:55;31.33;;;17.10;;
16878;SDS011;8556;52.218;9.884;2024-03-22T07:03:22;31.30;;;16.77;;
16878;SDS011;8556;52.218;9.884;2024-03-22T07:05:48;33.73;;;18.60;;
16878;SDS011;8556;52.218;9.884;2024-03-22T07:08:14;31.13;;;17.33;;
16878;SDS011;8556;52.218;9.884;2024-03-22T07:10:40;30.63;;;16.73;;
16878;SDS011;8556;52.218;9.884;2024-03-22T07:13:07;30.10;;;16.33;;
16878;SDS011;8556;52.218;9.884;2024-03-22T07:15:35;32.03;;;17.60;;
16878;SDS011;8556;52.218;9.884;2024-03-22T07:18:02;31.00;;;17.03;;
16878;SDS011;8556;52.218;9.884;2024-03-22T07:20:30;30.13;;;18.13;;
16878;SDS011;8556;52.218;9.884;2024-03-22T07:22:57;31.27;;;18.30;;
16878;SDS011;8556;52.218;9.884;2024-03-22T07:25:23;34.33;;;18.77;;
16878;SDS011;8556;52.218;9.884;2024-03-22T07:27:50;30.73;;;17.97;;
16878;SDS011;8556;52.218;9.884;2024-03-22T07:30:15;30.47;;;17.80;;
16878;SDS011;8556;52.218;9.884;2024-03-22T07:32:44;30.30;;;17.33;;
16878;SDS011;8556;52.218;9.884;2024-03-22T07:35:12;31.63;;;17.57;;
16878;SDS011;8556;52.218;9.884;2024-03-22T07:37:39;30.60;;;17.20;;
16878;SDS011;8556;52.218;9.884;2024-03-22T07:40:06;28.63;;;18.03;;
16878;SDS011;8556;52.218;9.884;2024-03-22T07:42:33;32.70;;;17.00;;
16878;SDS011;8556;52.218;9.884;2024-03-22T07:44:59;29.77;;;17.27;;
16878;SDS011;8556;52.218;9.884;2024-03-22T07:47:26;28.13;;;16.63;;
16878;SDS011;8556;52.218;9.884;2024-03-22T07:49:54;31.43;;;16.83;;
16878;SDS011;8556;52.218;9.884;2024-03-22T07:52:20;27.83;;;15.83;;
16878;SDS011;8556;52.218;9.884;2024-03-22T07:54:46;29.90;;;17.30;;
16878;SDS011;8556;52.218;9.884;2024-03-22T07:57:13;28.97;;;16.70;;
16878;SDS011;8556;52.218;9.884;2024-03-22T07:59:39;29.00;;;16.37;;
16878;SDS011;8556;52.218;9.884;2024-03-22T08:02:09;27.97;;;16.57;;
16878;SDS011;8556;52.218;9.884;2024-03-22T08:04:35;29.27;;;16.47;;
16878;SDS011;8556;52.218;9.884;2024-03-22T08:07:03;27.03;;;16.47;;
16878;SDS011;8556;52.218;9.884;2024-03-22T08:09:29;30.37;;;17.27;;
16878;SDS011;8556;52.218;9.884;2024-03-22T08:11:56;28.40;;;15.93;;
16878;SDS011;8556;52.218;9.884;2024-03-22T08:14:22;26.47;;;15.43;;
16878;SDS011;8556;52.218;9.884;2024-03-22T08:16:49;26.00;;;14.10;;
16878;SDS011;8556;52.218;9.884;2024-03-22T08:19:15;25.57;;;14.57;;
16878;SDS011;8556;52.218;9.884;2024-03-22T08:21:42;28.10;;;15.07;;
16878;SDS011;8556;52.218;9.884;2024-03-22T08:24:10;27.00;;;14.93;;
16878;SDS011;8556;52.218;9.884;2024-03-22T08:26:36;24.73;;;14.00;;
16878;SDS011;8556;52.218;9.884;2024-03-22T08:29:03;24.93;;;14.50;;
16878;SDS011;8556;52.218;9.884;2024-03-22T08:31:30;26.33;;;14.43;;
16878;SDS011;8556;52.218;9.884;2024-03-22T08:33:58;24.10;;;14.70;;
16878;SDS011;8556;52.218;9.884;2024-03-22T08:36:23;25.03;;;15.13;;
16878;SDS011;8556;52.218;9.884;2024-03-22T08:38:51;28.17;;;15.27;;
16878;SDS011;8556;52.218;9.884;2024-03-22T08:41:18;24.70;;;13.90;;
16878;SDS011;8556;52.218;9.884;2024-03-22T08:43:45;25.07;;;13.80;;
16878;SDS011;8556;52.218;9.884;2024-03-22T08:46:11;26.63;;;14.07;;
16878;SDS011;8556;52.218;9.884;2024-03-22T08:48:38;25.73;;;14.83;;
16878;SDS011;8556;52.218;9.884;2024-03-22T08:51:04;25.27;;;14.53;;
16878;SDS011;8556;52.218;9.884;2024-03-22T08:53:31;25.60;;;14.10;;
16878;SDS011;8556;52.218;9.884;2024-03-22T08:55:57;26.13;;;15.17;;
16878;SDS011;8556;52.218;9.884;2024-03-22T08:58:25;25.43;;;15.00;;
16878;SDS011;8556;52.218;9.884;2024-03-22T09:00:51;23.40;;;14.43;;
16878;SDS011;8556;52.218;9.884;2024-03-22T09:03:19;24.77;;;14.17;;
16878;SDS011;8556;52.218;9.884;2024-03-22T09:05:46;25.10;;;14.10;;
16878;SDS011;8556;52.218;9.884;2024-03-22T09:08:14;25.10;;;14.37;;
16878;SDS011;8556;52.218;9.884;2024-03-22T09:10:40;24.80;;;14.07;;
16878;SDS011;8556;52.218;9.884;2024-03-22T09:13:07;24.63;;;13.70;;
16878;SDS011;8556;52.218;9.884;2024-03-22T09:15:36;22.90;;;13.80;;
16878;SDS011;8556;52.218;9.884;2024-03-22T09:18:03;22.73;;;13.50;;
16878;SDS011;8556;52.218;9.884;2024-03-22T09:20:30;24.63;;;14.07;;
16878;SDS011;8556;52.218;9.884;2024-03-22T09:22:57;25.27;;;14.87;;
16878;SDS011;8556;52.218;9.884;2024-03-22T09:25:23;24.53;;;14.47;;
16878;SDS011;8556;52.218;9.884;2024-03-22T09:27:50;26.03;;;13.93;;
16878;SDS011;8556;52.218;9.884;2024-03-22T09:30:16;24.30;;;14.43;;
16878;SDS011;8556;52.218;9.884;2024-03-22T09:32:44;24.60;;;14.30;;
16878;SDS011;8556;52.218;9.884;2024-03-22T09:35:10;22.70;;;13.50;;
16878;SDS011;8556;52.218;9.884;2024-03-22T09:37:39;23.40;;;13.43;;
16878;SDS011;8556;52.218;9.884;2024-03-22T09:40:06;24.27;;;14.20;;
16878;SDS011;8556;52.218;9.884;2024-03-22T09:42:33;23.50;;;12.93;;
16878;SDS011;8556;52.218;9.884;2024-03-22T09:45:04;25.20;;;14.03;;
16878;SDS011;8556;52.218;9.884;2024-03-22T09:47:35;23.10;;;12.90;;
16878;SDS011;8556;52.218;9.884;2024-03-22T09:50:04;23.77;;;13.23;;
16878;SDS011;8556;52.218;9.884;2024-03-22T09:52:33;22.37;;;13.20;;
16878;SDS011;8556;52.218;9.884;2024-03-22T09:55:00;22.43;;;12.97;;
16878;SDS011;8556;52.218;9.884;2024-03-22T09:57:29;23.90;;;13.07;;
16878;SDS011;8556;52.218;9.884;2024-03-22T09:59:57;21.67;;;13.20;;
16878;SDS011;8556;52.218;9.884;2024-03-22T10:02:25;21.23;;;13.10;;
16878;SDS011;8556;52.218;9.884;2024-03-22T10:04:51;20.43;;;12.17;;
16878;SDS011;8556;52.218;9.884;2024-03-22T10:07:19;22.37;;;11.77;;
16878;SDS011;8556;52.218;9.884;2024-03-22T10:09:45;19.90;;;11.83;;
16878;SDS011;8556;52.218;9.884;2024-03-22T10:12:12;19.87;;;11.73;;
16878;SDS011;8556;52.218;9.884;2024-03-22T10:14:42;19.60;;;11.33;;
16878;SDS011;8556;52.218;9.884;2024-03-22T10:17:09;20.93;;;11.63;;
16878;SDS011;8556;52.218;9.884;2024-03-22T10:19:35;18.93;;;10.60;;
16878;SDS011;8556;52.218;9.884;2024-03-22T10:22:05;18.17;;;10.60;;
16878;SDS011;8556;52.218;9.884;2024-03-22T10:24:33;18.50;;;10.27;;
16878;SDS011;8556;52.218;9.884;2024-03-22T10:27:00;18.47;;;10.33;;
16878;SDS011;8556;52.218;9.884;2024-03-22T10:29:26;16.17;;;9.63;;
16878;SDS011;8556;52.218;9.884;2024-03-22T10:31:53;16.97;;;10.20;;
16878;SDS011;8556;52.218;9.884;2024-03-22T10:34:21;15.53;;;9.27;;
16878;SDS011;8556;52.218;9.884;2024-03-22T10:36:48;16.93;;;9.43;;
16878;SDS011;8556;52.218;9.884;2024-03-22T10:39:16;15.97;;;9.73;;
16878;SDS011;8556;52.218;9.884;2024-03-22T10:41:45;15.97;;;8.93;;
16878;SDS011;8556;52.218;9.884;2024-03-22T10:44:12;15.53;;;8.83;;
16878;SDS011;8556;52.218;9.884;2024-03-22T10:46:42;13.83;;;7.97;;
16878;SDS011;8556;52.218;9.884;2024-03-22T10:49:10;14.75;;;9.00;;
16878;SDS011;8556;52.218;9.884;2024-03-22T10:51:41;14.33;;;8.57;;
16878;SDS011;8556;52.218;9.884;2024-03-22T10:54:09;15.77;;;8.87;;
16878;SDS011;8556;52.218;9.884;2024-03-22T10:56:39;16.57;;;8.77;;
16878;SDS011;8556;52.218;9.884;2024-03-22T10:59:08;14.40;;;8.77;;
16878;SDS011;8556;52.218;9.884;2024-03-22T11:01:35;14.93;;;8.53;;
16878;SDS011;8556;52.218;9.884;2024-03-22T11:04:03;18.67;;;8.77;;
16878;SDS011;8556;52.218;9.884;2024-03-22T11:06:31;15.97;;;8.83;;
16878;SDS011;8556;52.218;9.884;2024-03-22T11:08:59;16.13;;;8.80;;
16878;SDS011;8556;52.218;9.884;2024-03-22T11:11:28;16.47;;;9.20;;
16878;SDS011;8556;52.218;9.884;2024-03-22T11:13:54;17.07;;;9.17;;
16878;SDS011;8556;52.218;9.884;2024-03-22T11:16:23;17.60;;;10.47;;
16878;SDS011;8556;52.218;9.884;2024-03-22T11:18:50;17.40;;;10.03;;
16878;SDS011;8556;52.218;9.884;2024-03-22T11:21:17;16.77;;;9.57;;
16878;SDS011;8556;52.218;9.884;2024-03-22T11:23:44;15.47;;;9.33;;
16878;SDS011;8556;52.218;9.884;2024-03-22T11:26:12;15.83;;;9.43;;
16878;SDS011;8556;52.218;9.884;2024-03-22T11:28:38;15.10;;;9.27;;
16878;SDS011;8556;52.218;9.884;2024-03-22T11:31:05;15.77;;;9.03;;
16878;SDS011;8556;52.218;9.884;2024-03-22T11:33:32;14.63;;;9.53;;
16878;SDS011;8556;52.218;9.884;2024-03-22T11:35:59;14.63;;;8.47;;
16878;SDS011;8556;52.218;9.884;2024-03-22T11:38:25;16.00;;;9.10;;
16878;SDS011;8556;52.218;9.884;2024-03-22T11:40:53;15.47;;;9.23;;
16878;SDS011;8556;52.218;9.884;2024-03-22T11:43:22;16.77;;;10.13;;
16878;SDS011;8556;52.218;9.884;2024-03-22T11:45:50;15.50;;;9.93;;
16878;SDS011;8556;52.218;9.884;2024-03-22T11:48:16;14.87;;;9.23;;
16878;SDS011;8556;52.218;9.884;2024-03-22T11:50:44;16.97;;;9.40;;
16878;SDS011;8556;52.218;9.884;2024-03-22T11:53:11;17.37;;;10.47;;
16878;SDS011;8556;52.218;9.884;2024-03-22T11:55:38;15.57;;;9.80;;
16878;SDS011;8556;52.218;9.884;2024-03-22T11:58:04;15.60;;;9.30;;
16878;SDS011;8556;52.218;9.884;2024-03-22T12:00:32;17.30;;;9.57;;
16878;SDS011;8556;52.218;9.884;2024-03-22T12:02:58;15.93;;;8.87;;
16878;SDS011;8556;52.218;9.884;2024-03-22T12:05:25;16.17;;;9.03;;
16878;SDS011;8556;52.218;9.884;2024-03-22T12:07:52;16.67;;;9.73;;
16878;SDS011;8556;52.218;9.884;2024-03-22T12:10:19;17.10;;;9.30;;
16878;SDS011;8556;52.218;9.884;2024-03-22T12:12:45;15.73;;;9.87;;
16878;SDS011;8556;52.218;9.884;2024-03-22T12:15:12;17.97;;;10.47;;
16878;SDS011;8556;52.218;9.884;2024-03-22T12:17:38;15.53;;;8.93;;
16878;SDS011;8556;52.218;9.884;2024-03-22T12:20:08;16.17;;;10.07;;
16878;SDS011;8556;52.218;9.884;2024-03-22T12:22:40;15.07;;;8.73;;
16878;SDS011;8556;52.218;9.884;2024-03-22T12:25:09;16.47;;;9.33;;
16878;SDS011;8556;52.218;9.884;2024-03-22T12:27:36;16.73;;;9.60;;
16878;SDS011;8556;52.218;9.884;2024-03-22T12:30:04;15.87;;;9.70;;
16878;SDS011;8556;52.218;9.884;2024-03-22T12:32:31;15.00;;;10.23;;
16878;SDS011;8556;52.218;9.884;2024-03-22T12:34:58;15.93;;;9.83;;
16878;SDS011;8556;52.218;9.884;2024-03-22T12:37:24;17.17;;;9.67;;
16878;SDS011;8556;52.218;9.884;2024-03-22T12:39:51;17.40;;;9.67;;
16878;SDS011;8556;52.218;9.884;2024-03-22T12:42:18;19.17;;;10.70;;
16878;SDS011;8556;52.218;9.884;2024-03-22T12:44:45;17.30;;;10.97;;
16878;SDS011;8556;52.218;9.884;2024-03-22T12:47:11;18.90;;;11.30;;
16878;SDS011;8556;52.218;9.884;2024-03-22T12:49:38;19.83;;;11.53;;
16878;SDS011;8556;52.218;9.884;2024-03-22T12:52:04;17.97;;;11.27;;
16878;SDS011;8556;52.218;9.884;2024-03-22T12:54:32;20.33;;;12.37;;
16878;SDS011;8556;52.218;9.884;2024-03-22T12:56:57;18.70;;;11.93;;
16878;SDS011;8556;52.218;9.884;2024-03-22T12:59:26;19.77;;;12.90;;
16878;SDS011;8556;52.218;9.884;2024-03-22T13:01:52;21.30;;;13.27;;
16878;SDS011;8556;52.218;9.884;2024-03-22T13:04:20;21.47;;;14.03;;
16878;SDS011;8556;52.218;9.884;2024-03-22T13:06:45;23.33;;;15.13;;
16878;SDS011;8556;52.218;9.884;2024-03-22T13:09:12;21.47;;;15.23;;
16878;SDS011;8556;52.218;9.884;2024-03-22T13:11:38;24.23;;;15.93;;
16878;SDS011;8556;52.218;9.884;2024-03-22T13:14:06;24.83;;;15.80;;
16878;SDS011;8556;52.218;9.884;2024-03-22T13:16:33;24.37;;;16.90;;
16878;SDS011;8556;52.218;9.884;2024-03-22T13:19:00;25.60;;;16.97;;
16878;SDS011;8556;52.218;9.884;2024-03-22T13:21:26;25.30;;;17.47;;
16878;SDS011;8556;52.218;9.884;2024-03-22T13:23:53;24.93;;;16.53;;
16878;SDS011;8556;52.218;9.884;2024-03-22T13:26:19;27.90;;;18.70;;
16878;SDS011;8556;52.218;9.884;2024-03-22T13:28:46;27.37;;;18.60;;
16878;SDS011;8556;52.218;9.884;2024-03-22T13:31:12;24.20;;;17.43;;
16878;SDS011;8556;52.218;9.884;2024-03-22T13:33:42;24.80;;;17.63;;
16878;SDS011;8556;52.218;9.884;2024-03-22T13:36:07;25.20;;;17.70;;
16878;SDS011;8556;52.218;9.884;2024-03-22T13:38:34;24.97;;;16.67;;
16878;SDS011;8556;52.218;9.884;2024-03-22T13:41:00;23.30;;;16.43;;
16878;SDS011;8556;52.218;9.884;2024-03-22T13:43:29;25.33;;;18.10;;
16878;SDS011;8556;52.218;9.884;2024-03-22T13:45:55;23.60;;;15.77;;
16878;SDS011;8556;52.218;9.884;2024-03-22T13:48:22;24.10;;;16.73;;
16878;SDS011;8556;52.218;9.884;2024-03-22T13:50:51;26.20;;;17.67;;
16878;SDS011;8556;52.218;9.884;2024-03-22T13:53:19;25.00;;;16.33;;
16878;SDS011;8556;52.218;9.884;2024-03-22T13:55:47;24.73;;;16.17;;
16878;SDS011;8556;52.218;9.884;2024-03-22T13:58:18;25.57;;;17.07;;
16878;SDS011;8556;52.218;9.884;2024-03-22T14:00:44;23.03;;;16.00;;
16878;SDS011;8556;52.218;9.884;2024-03-22T14:03:11;24.77;;;16.97;;
16878;SDS011;8556;52.218;9.884;2024-03-22T14:05:36;26.47;;;17.43;;
16878;SDS011;8556;52.218;9.884;2024-03-22T14:08:05;25.10;;;17.57;;
16878;SDS011;8556;52.218;9.884;2024-03-22T14:10:31;26.20;;;17.37;;
16878;SDS011;8556;52.218;9.884;2024-03-22T14:12:59;23.73;;;15.63;;
16878;SDS011;8556;52.218;9.884;2024-03-22T14:15:25;25.40;;;17.43;;
16878;SDS011;8556;52.218;9.884;2024-03-22T14:17:56;26.37;;;18.67;;
16878;SDS011;8556;52.218;9.884;2024-03-22T14:20:23;26.17;;;17.97;;
16878;SDS011;8556;52.218;9.884;2024-03-22T14:22:50;29.13;;;18.50;;
16878;SDS011;8556;52.218;9.884;2024-03-22T14:25:17;25.83;;;18.27;;
16878;SDS011;8556;52.218;9.884;2024-03-22T14:27:44;27.90;;;17.77;;
16878;SDS011;8556;52.218;9.884;2024-03-22T14:30:11;27.30;;;18.07;;
16878;SDS011;8556;52.218;9.884;2024-03-22T14:32:39;26.90;;;17.93;;
16878;SDS011;8556;52.218;9.884;2024-03-22T14:35:06;27.67;;;17.90;;